sensor_id;sensor_type;location;lat;lon;timestamp;P1;durP1;ratioP1;P2;durP2;ratioP2
2480;SDS011;57396;48.742;9.128;2022-10-26T00:00:45;4.50;;;3.60;;
2480;SDS011;57396;48.742;9.128;2022-10-26T00:03:10;8.17;;;3.17;;
2480;SDS011;57396;48.742;9.128;2022-10-26T00:05:36;10.63;;;3.53;;
2480;SDS011;57396;48.742;9.128;2022-10-26T00:08:01;11.93;;;4.27;;
2480;SDS011;57396;48.742;9.128;2022-10-26T00:10:27;10.20;;;3.97;;
2480;SDS011;57396;48.742;9.128;2022-10-26T00:12:52;6.33;;;3.80;;
2480;SDS011;57396;48.742;9.128;2022-10-26T00:15:18;7.17;;;3.80;;
2480;SDS011;57396;48.742;9.128;2022-10-26T00:17:45;9.80;;;3.70;;
2480;SDS011;57396;48.742;9.128;2022-10-26T00:20:11;12.93;;;3.73;;
2480;SDS011;57396;48.742;9.128;2022-10-26T00:22:37;6.33;;;3.47;;
2480;SDS011;57396;48.742;9.128;2022-10-26T00:25:02;7.73;;;3.97;;
2480;SDS011;57396;48.742;9.128;2022-10-26T00:27:28;10.57;;;3.50;;
2480;SDS011;57396;48.742;9.128;2022-10-26T00:29:54;5.13;;;3.30;;
2480;SDS011;57396;48.742;9.128;2022-10-26T00:32:19;7.97;;;3.73;;
2480;SDS011;57396;48.742;9.128;2022-10-26T00:34:45;12.87;;;3.43;;
2480;SDS011;57396;48.742;9.128;2022-10-26T00:37:10;8.70;;;2.93;;
2480;SDS011;57396;48.742;9.128;2022-10-26T00:39:36;9.97;;;4.03;;
2480;SDS011;57396;48.742;9.128;2022-10-26T00:42:01;7.80;;;3.80;;
2480;SDS011;57396;48.742;9.128;2022-10-26T00:47:11;10.83;;;4.83;;
2480;SDS011;57396;48.742;9.128;2022-10-26T00:49:39;10.20;;;4.50;;
2480;SDS011;57396;48.742;9.128;2022-10-26T00:52:05;7.80;;;4.73;;
2480;SDS011;57396;48.742;9.128;2022-10-26T00:54:31;12.23;;;4.60;;
2480;SDS011;57396;48.742;9.128;2022-10-26T00:56:57;14.70;;;5.00;;
2480;SDS011;57396;48.742;9.128;2022-10-26T00:59:22;7.17;;;3.87;;
2480;SDS011;57396;48.742;9.128;2022-10-26T01:01:48;6.70;;;3.77;;
2480;SDS011;57396;48.742;9.128;2022-10-26T01:04:14;6.30;;;4.37;;
2480;SDS011;57396;48.742;9.128;2022-10-26T01:06:40;5.53;;;3.53;;
2480;SDS011;57396;48.742;9.128;2022-10-26T01:09:06;8.17;;;3.90;;
2480;SDS011;57396;48.742;9.128;2022-10-26T01:11:32;8.57;;;4.07;;
2480;SDS011;57396;48.742;9.128;2022-10-26T01:13:58;6.43;;;3.30;;
2480;SDS011;57396;48.742;9.128;2022-10-26T01:25:40;6.33;;;2.90;;
2480;SDS011;57396;48.742;9.128;2022-10-26T01:31:10;3.40;;;3.07;;
2480;SDS011;57396;48.742;9.128;2022-10-26T01:33:42;5.17;;;2.77;;
2480;SDS011;57396;48.742;9.128;2022-10-26T01:36:29;6.13;;;3.13;;
2480;SDS011;57396;48.742;9.128;2022-10-26T01:39:33;7.17;;;2.97;;
2480;SDS011;57396;48.742;9.128;2022-10-26T01:42:02;5.13;;;2.90;;
2480;SDS011;57396;48.742;9.128;2022-10-26T01:44:30;6.00;;;2.10;;
2480;SDS011;57396;48.742;9.128;2022-10-26T01:46:58;5.97;;;2.83;;
2480;SDS011;57396;48.742;9.128;2022-10-26T01:49:26;10.57;;;3.70;;
2480;SDS011;57396;48.742;9.128;2022-10-26T01:51:53;5.10;;;2.70;;
2480;SDS011;57396;48.742;9.128;2022-10-26T01:54:18;5.47;;;2.73;;
2480;SDS011;57396;48.742;9.128;2022-10-26T01:56:45;4.40;;;2.50;;
2480;SDS011;57396;48.742;9.128;2022-10-26T02:02:03;11.13;;;3.37;;
2480;SDS011;57396;48.742;9.128;2022-10-26T02:04:52;8.47;;;3.57;;
2480;SDS011;57396;48.742;9.128;2022-10-26T02:07:34;5.83;;;3.30;;
2480;SDS011;57396;48.742;9.128;2022-10-26T02:13:05;3.67;;;2.43;;
2480;SDS011;57396;48.742;9.128;2022-10-26T02:15:36;5.77;;;2.90;;
2480;SDS011;57396;48.742;9.128;2022-10-26T02:20:52;5.20;;;2.73;;
2480;SDS011;57396;48.742;9.128;2022-10-26T02:23:20;6.20;;;2.60;;
2480;SDS011;57396;48.742;9.128;2022-10-26T02:25:49;7.87;;;2.70;;
2480;SDS011;57396;48.742;9.128;2022-10-26T02:28:18;8.37;;;2.60;;
2480;SDS011;57396;48.742;9.128;2022-10-26T02:30:46;8.27;;;2.40;;
2480;SDS011;57396;48.742;9.128;2022-10-26T02:33:12;8.93;;;2.93;;
2480;SDS011;57396;48.742;9.128;2022-10-26T02:35:39;3.17;;;2.20;;
2480;SDS011;57396;48.742;9.128;2022-10-26T02:38:07;7.63;;;3.07;;
2480;SDS011;57396;48.742;9.128;2022-10-26T02:40:35;3.80;;;2.00;;
2480;SDS011;57396;48.742;9.128;2022-10-26T02:43:03;8.07;;;2.10;;
2480;SDS011;57396;48.742;9.128;2022-10-26T02:45:42;4.57;;;2.40;;
2480;SDS011;57396;48.742;9.128;2022-10-26T02:48:09;3.90;;;2.10;;
2480;SDS011;57396;48.742;9.128;2022-10-26T02:50:42;5.30;;;2.40;;
2480;SDS011;57396;48.742;9.128;2022-10-26T02:53:17;6.20;;;2.30;;
2480;SDS011;57396;48.742;9.128;2022-10-26T02:55:49;7.30;;;2.47;;
2480;SDS011;57396;48.742;9.128;2022-10-26T02:58:25;5.63;;;2.60;;
2480;SDS011;57396;48.742;9.128;2022-10-26T03:00:53;4.70;;;2.40;;
2480;SDS011;57396;48.742;9.128;2022-10-26T03:03:18;8.57;;;2.47;;
2480;SDS011;57396;48.742;9.128;2022-10-26T03:05:44;2.93;;;2.10;;
2480;SDS011;57396;48.742;9.128;2022-10-26T03:08:09;6.60;;;2.20;;
2480;SDS011;57396;48.742;9.128;2022-10-26T03:10:37;3.93;;;2.60;;
2480;SDS011;57396;48.742;9.128;2022-10-26T03:13:05;3.10;;;2.53;;
2480;SDS011;57396;48.742;9.128;2022-10-26T03:15:30;6.20;;;2.57;;
2480;SDS011;57396;48.742;9.128;2022-10-26T03:17:56;4.10;;;2.30;;
2480;SDS011;57396;48.742;9.128;2022-10-26T03:20:21;4.47;;;2.30;;
2480;SDS011;57396;48.742;9.128;2022-10-26T03:22:47;4.07;;;2.17;;
2480;SDS011;57396;48.742;9.128;2022-10-26T03:25:12;2.80;;;2.47;;
2480;SDS011;57396;48.742;9.128;2022-10-26T03:27:39;6.20;;;2.80;;
2480;SDS011;57396;48.742;9.128;2022-10-26T03:30:05;5.73;;;2.13;;
2480;SDS011;57396;48.742;9.128;2022-10-26T03:32:31;9.80;;;2.57;;
2480;SDS011;57396;48.742;9.128;2022-10-26T03:34:56;5.67;;;2.90;;
2480;SDS011;57396;48.742;9.128;2022-10-26T03:37:22;9.80;;;2.63;;
2480;SDS011;57396;48.742;9.128;2022-10-26T03:39:47;3.37;;;2.50;;
2480;SDS011;57396;48.742;9.128;2022-10-26T03:42:13;9.33;;;2.33;;
2480;SDS011;57396;48.742;9.128;2022-10-26T03:44:38;11.93;;;2.47;;
2480;SDS011;57396;48.742;9.128;2022-10-26T03:47:04;5.70;;;2.33;;
2480;SDS011;57396;48.742;9.128;2022-10-26T03:49:29;6.73;;;1.97;;
2480;SDS011;57396;48.742;9.128;2022-10-26T03:51:55;4.20;;;2.17;;
2480;SDS011;57396;48.742;9.128;2022-10-26T03:54:20;5.93;;;2.17;;
2480;SDS011;57396;48.742;9.128;2022-10-26T03:56:45;5.77;;;2.13;;
2480;SDS011;57396;48.742;9.128;2022-10-26T03:59:11;4.50;;;2.70;;
2480;SDS011;57396;48.742;9.128;2022-10-26T04:01:36;4.23;;;2.03;;
2480;SDS011;57396;48.742;9.128;2022-10-26T04:04:02;6.97;;;2.27;;
2480;SDS011;57396;48.742;9.128;2022-10-26T04:06:28;4.27;;;1.90;;
2480;SDS011;57396;48.742;9.128;2022-10-26T04:08:53;3.07;;;1.70;;
2480;SDS011;57396;48.742;9.128;2022-10-26T04:11:22;3.57;;;2.10;;
2480;SDS011;57396;48.742;9.128;2022-10-26T04:13:48;6.50;;;2.57;;
2480;SDS011;57396;48.742;9.128;2022-10-26T04:16:13;4.90;;;2.10;;
2480;SDS011;57396;48.742;9.128;2022-10-26T04:18:39;4.27;;;2.13;;
2480;SDS011;57396;48.742;9.128;2022-10-26T04:21:04;5.70;;;2.73;;
2480;SDS011;57396;48.742;9.128;2022-10-26T04:23:29;4.00;;;2.10;;
2480;SDS011;57396;48.742;9.128;2022-10-26T04:25:55;6.50;;;2.63;;
2480;SDS011;57396;48.742;9.128;2022-10-26T04:28:20;2.97;;;2.30;;
2480;SDS011;57396;48.742;9.128;2022-10-26T04:30:46;3.00;;;2.30;;
2480;SDS011;57396;48.742;9.128;2022-10-26T04:33:11;3.73;;;2.40;;
2480;SDS011;57396;48.742;9.128;2022-10-26T04:35:37;9.97;;;2.23;;
2480;SDS011;57396;48.742;9.128;2022-10-26T04:38:03;8.20;;;2.20;;
2480;SDS011;57396;48.742;9.128;2022-10-26T04:40:30;14.83;;;2.40;;
2480;SDS011;57396;48.742;9.128;2022-10-26T04:42:56;5.73;;;2.30;;
2480;SDS011;57396;48.742;9.128;2022-10-26T04:45:22;21.63;;;2.83;;
2480;SDS011;57396;48.742;9.128;2022-10-26T04:47:57;3.17;;;2.30;;
2480;SDS011;57396;48.742;9.128;2022-10-26T04:50:27;3.23;;;2.37;;
2480;SDS011;57396;48.742;9.128;2022-10-26T04:52:53;3.60;;;2.60;;
2480;SDS011;57396;48.742;9.128;2022-10-26T04:55:18;7.47;;;2.50;;
2480;SDS011;57396;48.742;9.128;2022-10-26T04:57:44;4.10;;;2.30;;
2480;SDS011;57396;48.742;9.128;2022-10-26T05:00:10;4.87;;;2.17;;
2480;SDS011;57396;48.742;9.128;2022-10-26T05:02:36;3.07;;;2.30;;
2480;SDS011;57396;48.742;9.128;2022-10-26T05:05:01;4.50;;;2.23;;
2480;SDS011;57396;48.742;9.128;2022-10-26T05:07:27;7.93;;;2.40;;
2480;SDS011;57396;48.742;9.128;2022-10-26T05:09:52;10.80;;;2.60;;
2480;SDS011;57396;48.742;9.128;2022-10-26T05:12:18;5.40;;;2.20;;
2480;SDS011;57396;48.742;9.128;2022-10-26T05:14:43;6.27;;;2.30;;
2480;SDS011;57396;48.742;9.128;2022-10-26T05:17:08;4.93;;;2.30;;
2480;SDS011;57396;48.742;9.128;2022-10-26T05:19:34;4.43;;;2.20;;
2480;SDS011;57396;48.742;9.128;2022-10-26T05:21:59;6.30;;;2.27;;
2480;SDS011;57396;48.742;9.128;2022-10-26T05:24:25;5.20;;;2.00;;
2480;SDS011;57396;48.742;9.128;2022-10-26T05:26:50;3.77;;;2.07;;
2480;SDS011;57396;48.742;9.128;2022-10-26T05:29:16;4.03;;;2.40;;
2480;SDS011;57396;48.742;9.128;2022-10-26T05:31:41;6.00;;;2.00;;
2480;SDS011;57396;48.742;9.128;2022-10-26T05:34:07;6.47;;;2.43;;
2480;SDS011;57396;48.742;9.128;2022-10-26T05:36:32;4.73;;;2.37;;
2480;SDS011;57396;48.742;9.128;2022-10-26T05:38:58;8.00;;;2.00;;
2480;SDS011;57396;48.742;9.128;2022-10-26T05:41:24;9.77;;;2.27;;
2480;SDS011;57396;48.742;9.128;2022-10-26T05:43:49;3.53;;;2.13;;
2480;SDS011;57396;48.742;9.128;2022-10-26T05:46:15;3.10;;;2.20;;
2480;SDS011;57396;48.742;9.128;2022-10-26T05:48:40;5.10;;;2.20;;
2480;SDS011;57396;48.742;9.128;2022-10-26T05:51:06;6.57;;;2.10;;
2480;SDS011;57396;48.742;9.128;2022-10-26T05:53:31;4.30;;;2.03;;
2480;SDS011;57396;48.742;9.128;2022-10-26T05:55:57;2.93;;;2.00;;
2480;SDS011;57396;48.742;9.128;2022-10-26T05:58:23;4.70;;;2.07;;
2480;SDS011;57396;48.742;9.128;2022-10-26T06:03:29;3.50;;;2.03;;
2480;SDS011;57396;48.742;9.128;2022-10-26T06:06:22;3.63;;;2.07;;
2480;SDS011;57396;48.742;9.128;2022-10-26T06:08:47;5.90;;;2.30;;
2480;SDS011;57396;48.742;9.128;2022-10-26T06:11:13;8.30;;;2.20;;
2480;SDS011;57396;48.742;9.128;2022-10-26T06:13:39;2.70;;;2.00;;
2480;SDS011;57396;48.742;9.128;2022-10-26T06:18:36;3.10;;;2.00;;
2480;SDS011;57396;48.742;9.128;2022-10-26T06:27:05;4.57;;;1.73;;
2480;SDS011;57396;48.742;9.128;2022-10-26T06:32:26;4.07;;;2.20;;
2480;SDS011;57396;48.742;9.128;2022-10-26T06:34:53;5.40;;;2.00;;
2480;SDS011;57396;48.742;9.128;2022-10-26T06:37:41;6.63;;;2.30;;
2480;SDS011;57396;48.742;9.128;2022-10-26T06:40:09;4.57;;;2.00;;
2480;SDS011;57396;48.742;9.128;2022-10-26T06:42:36;5.83;;;2.40;;
2480;SDS011;57396;48.742;9.128;2022-10-26T06:45:02;2.90;;;2.20;;
2480;SDS011;57396;48.742;9.128;2022-10-26T06:47:31;4.63;;;2.40;;
2480;SDS011;57396;48.742;9.128;2022-10-26T06:55:23;3.77;;;2.40;;
2480;SDS011;57396;48.742;9.128;2022-10-26T06:57:50;4.20;;;2.13;;
2480;SDS011;57396;48.742;9.128;2022-10-26T07:00:19;3.40;;;2.30;;
2480;SDS011;57396;48.742;9.128;2022-10-26T07:02:46;10.73;;;2.30;;
2480;SDS011;57396;48.742;9.128;2022-10-26T07:05:13;2.90;;;2.20;;
2480;SDS011;57396;48.742;9.128;2022-10-26T07:07:42;8.83;;;2.63;;
2480;SDS011;57396;48.742;9.128;2022-10-26T07:10:09;4.67;;;2.10;;
2480;SDS011;57396;48.742;9.128;2022-10-26T07:12:35;5.13;;;2.07;;
2480;SDS011;57396;48.742;9.128;2022-10-26T07:15:01;11.50;;;2.50;;
2480;SDS011;57396;48.742;9.128;2022-10-26T07:17:26;7.07;;;2.57;;
2480;SDS011;57396;48.742;9.128;2022-10-26T07:19:53;2.70;;;1.97;;
2480;SDS011;57396;48.742;9.128;2022-10-26T07:22:19;5.87;;;2.20;;
2480;SDS011;57396;48.742;9.128;2022-10-26T07:24:44;8.67;;;2.77;;
2480;SDS011;57396;48.742;9.128;2022-10-26T07:27:13;6.40;;;2.50;;
2480;SDS011;57396;48.742;9.128;2022-10-26T07:29:39;4.97;;;2.47;;
2480;SDS011;57396;48.742;9.128;2022-10-26T07:32:04;9.23;;;2.50;;
2480;SDS011;57396;48.742;9.128;2022-10-26T07:34:30;5.80;;;2.50;;
2480;SDS011;57396;48.742;9.128;2022-10-26T07:36:57;6.73;;;2.60;;
2480;SDS011;57396;48.742;9.128;2022-10-26T07:39:23;6.80;;;2.57;;
2480;SDS011;57396;48.742;9.128;2022-10-26T07:41:49;7.27;;;2.30;;
2480;SDS011;57396;48.742;9.128;2022-10-26T07:44:14;6.37;;;2.80;;
2480;SDS011;57396;48.742;9.128;2022-10-26T07:46:39;3.67;;;2.50;;
2480;SDS011;57396;48.742;9.128;2022-10-26T07:49:05;13.13;;;2.77;;
2480;SDS011;57396;48.742;9.128;2022-10-26T07:51:30;3.67;;;2.70;;
2480;SDS011;57396;48.742;9.128;2022-10-26T07:53:56;9.43;;;2.80;;
2480;SDS011;57396;48.742;9.128;2022-10-26T07:56:21;3.70;;;2.17;;
2480;SDS011;57396;48.742;9.128;2022-10-26T07:58:47;6.23;;;2.40;;
2480;SDS011;57396;48.742;9.128;2022-10-26T08:01:13;7.90;;;3.40;;
2480;SDS011;57396;48.742;9.128;2022-10-26T08:03:39;8.03;;;3.23;;
2480;SDS011;57396;48.742;9.128;2022-10-26T08:06:05;4.97;;;2.10;;
2480;SDS011;57396;48.742;9.128;2022-10-26T08:08:31;11.27;;;2.77;;
2480;SDS011;57396;48.742;9.128;2022-10-26T08:10:57;4.40;;;2.23;;
2480;SDS011;57396;48.742;9.128;2022-10-26T08:13:23;4.57;;;2.37;;
2480;SDS011;57396;48.742;9.128;2022-10-26T08:15:48;9.50;;;2.27;;
2480;SDS011;57396;48.742;9.128;2022-10-26T08:18:14;3.80;;;2.50;;
2480;SDS011;57396;48.742;9.128;2022-10-26T08:20:39;4.80;;;2.50;;
2480;SDS011;57396;48.742;9.128;2022-10-26T08:23:05;4.37;;;2.63;;
2480;SDS011;57396;48.742;9.128;2022-10-26T08:25:33;11.43;;;2.20;;
2480;SDS011;57396;48.742;9.128;2022-10-26T08:28:02;9.43;;;2.40;;
2480;SDS011;57396;48.742;9.128;2022-10-26T08:30:31;7.53;;;2.97;;
2480;SDS011;57396;48.742;9.128;2022-10-26T08:32:57;4.00;;;2.60;;
2480;SDS011;57396;48.742;9.128;2022-10-26T08:35:23;3.20;;;2.60;;
2480;SDS011;57396;48.742;9.128;2022-10-26T08:37:49;9.20;;;2.70;;
2480;SDS011;57396;48.742;9.128;2022-10-26T08:40:16;5.43;;;2.00;;
2480;SDS011;57396;48.742;9.128;2022-10-26T08:42:43;6.60;;;2.40;;
2480;SDS011;57396;48.742;9.128;2022-10-26T08:45:25;5.40;;;2.90;;
2480;SDS011;57396;48.742;9.128;2022-10-26T08:47:54;7.30;;;2.40;;
2480;SDS011;57396;48.742;9.128;2022-10-26T08:50:24;6.43;;;2.60;;
2480;SDS011;57396;48.742;9.128;2022-10-26T08:52:54;4.93;;;2.67;;
2480;SDS011;57396;48.742;9.128;2022-10-26T08:55:32;7.43;;;3.03;;
2480;SDS011;57396;48.742;9.128;2022-10-26T08:58:02;7.60;;;3.07;;
2480;SDS011;57396;48.742;9.128;2022-10-26T09:00:29;15.73;;;3.13;;
2480;SDS011;57396;48.742;9.128;2022-10-26T09:02:55;8.20;;;2.30;;
2480;SDS011;57396;48.742;9.128;2022-10-26T09:05:21;6.33;;;2.43;;
2480;SDS011;57396;48.742;9.128;2022-10-26T09:10:49;5.40;;;2.57;;
2480;SDS011;57396;48.742;9.128;2022-10-26T09:19:01;9.50;;;2.60;;
2480;SDS011;57396;48.742;9.128;2022-10-26T09:24:32;7.60;;;2.47;;
2480;SDS011;57396;48.742;9.128;2022-10-26T09:29:31;10.13;;;2.97;;
2480;SDS011;57396;48.742;9.128;2022-10-26T09:32:00;5.53;;;2.60;;
2480;SDS011;57396;48.742;9.128;2022-10-26T09:34:36;4.90;;;2.40;;
2480;SDS011;57396;48.742;9.128;2022-10-26T09:37:23;3.13;;;2.57;;
2480;SDS011;57396;48.742;9.128;2022-10-26T09:42:48;7.30;;;2.53;;
2480;SDS011;57396;48.742;9.128;2022-10-26T09:45:17;7.57;;;2.43;;
2480;SDS011;57396;48.742;9.128;2022-10-26T09:47:48;9.50;;;2.60;;
2480;SDS011;57396;48.742;9.128;2022-10-26T09:52:41;8.43;;;2.77;;
2480;SDS011;57396;48.742;9.128;2022-10-26T09:55:10;4.63;;;1.93;;
2480;SDS011;57396;48.742;9.128;2022-10-26T09:57:37;6.03;;;2.13;;
2480;SDS011;57396;48.742;9.128;2022-10-26T10:00:04;5.90;;;2.30;;
2480;SDS011;57396;48.742;9.128;2022-10-26T10:02:34;5.80;;;2.00;;
2480;SDS011;57396;48.742;9.128;2022-10-26T10:05:20;6.13;;;1.93;;
2480;SDS011;57396;48.742;9.128;2022-10-26T10:10:54;8.70;;;2.50;;
2480;SDS011;57396;48.742;9.128;2022-10-26T10:13:20;6.57;;;2.10;;
2480;SDS011;57396;48.742;9.128;2022-10-26T10:15:52;10.30;;;2.60;;
2480;SDS011;57396;48.742;9.128;2022-10-26T10:18:39;10.90;;;2.17;;
2480;SDS011;57396;48.742;9.128;2022-10-26T10:21:05;9.63;;;2.33;;
2480;SDS011;57396;48.742;9.128;2022-10-26T10:23:32;4.20;;;2.33;;
2480;SDS011;57396;48.742;9.128;2022-10-26T10:26:00;4.93;;;2.17;;
2480;SDS011;57396;48.742;9.128;2022-10-26T10:28:27;9.20;;;2.47;;
2480;SDS011;57396;48.742;9.128;2022-10-26T10:30:56;8.60;;;2.00;;
2480;SDS011;57396;48.742;9.128;2022-10-26T10:33:39;7.60;;;2.30;;
2480;SDS011;57396;48.742;9.128;2022-10-26T10:36:19;8.63;;;2.20;;
2480;SDS011;57396;48.742;9.128;2022-10-26T10:38:49;9.57;;;2.57;;
2480;SDS011;57396;48.742;9.128;2022-10-26T10:41:25;5.97;;;2.30;;
2480;SDS011;57396;48.742;9.128;2022-10-26T10:44:02;6.77;;;1.90;;
2480;SDS011;57396;48.742;9.128;2022-10-26T10:46:30;8.23;;;2.20;;
2480;SDS011;57396;48.742;9.128;2022-10-26T10:49:03;10.93;;;2.27;;
2480;SDS011;57396;48.742;9.128;2022-10-26T10:51:37;6.70;;;2.00;;
2480;SDS011;57396;48.742;9.128;2022-10-26T10:54:03;5.93;;;2.00;;
2480;SDS011;57396;48.742;9.128;2022-10-26T10:56:40;6.60;;;1.90;;
2480;SDS011;57396;48.742;9.128;2022-10-26T11:02:00;11.07;;;1.87;;
2480;SDS011;57396;48.742;9.128;2022-10-26T11:07:29;5.50;;;1.83;;
2480;SDS011;57396;48.742;9.128;2022-10-26T11:09:56;7.43;;;1.73;;
2480;SDS011;57396;48.742;9.128;2022-10-26T11:12:27;5.73;;;1.60;;
2480;SDS011;57396;48.742;9.128;2022-10-26T11:15:11;7.00;;;2.30;;
2480;SDS011;57396;48.742;9.128;2022-10-26T11:20:16;5.43;;;1.70;;
2480;SDS011;57396;48.742;9.128;2022-10-26T11:22:55;7.23;;;1.97;;
2480;SDS011;57396;48.742;9.128;2022-10-26T11:25:31;4.97;;;1.90;;
2480;SDS011;57396;48.742;9.128;2022-10-26T11:28:00;5.83;;;1.63;;
2480;SDS011;57396;48.742;9.128;2022-10-26T11:30:29;9.10;;;1.87;;
2480;SDS011;57396;48.742;9.128;2022-10-26T11:35:51;7.67;;;2.00;;
2480;SDS011;57396;48.742;9.128;2022-10-26T11:38:28;9.40;;;2.10;;
2480;SDS011;57396;48.742;9.128;2022-10-26T11:41:13;10.23;;;2.17;;
2480;SDS011;57396;48.742;9.128;2022-10-26T11:43:44;5.10;;;2.37;;
2480;SDS011;57396;48.742;9.128;2022-10-26T11:51:40;6.17;;;1.90;;
2480;SDS011;57396;48.742;9.128;2022-10-26T11:56:58;7.13;;;2.03;;
2480;SDS011;57396;48.742;9.128;2022-10-26T11:59:25;13.73;;;2.60;;
2480;SDS011;57396;48.742;9.128;2022-10-26T12:01:54;6.50;;;1.80;;
2480;SDS011;57396;48.742;9.128;2022-10-26T12:04:23;10.47;;;1.77;;
2480;SDS011;57396;48.742;9.128;2022-10-26T12:06:52;5.77;;;2.23;;
2480;SDS011;57396;48.742;9.128;2022-10-26T12:09:19;3.60;;;1.60;;
2480;SDS011;57396;48.742;9.128;2022-10-26T12:11:49;13.50;;;2.17;;
2480;SDS011;57396;48.742;9.128;2022-10-26T12:14:30;7.53;;;1.73;;
2480;SDS011;57396;48.742;9.128;2022-10-26T12:17:14;4.23;;;1.87;;
2480;SDS011;57396;48.742;9.128;2022-10-26T12:20:27;11.93;;;1.83;;
2480;SDS011;57396;48.742;9.128;2022-10-26T12:23:14;7.10;;;2.30;;
2480;SDS011;57396;48.742;9.128;2022-10-26T12:25:40;6.53;;;2.00;;
2480;SDS011;57396;48.742;9.128;2022-10-26T12:28:16;6.10;;;2.03;;
2480;SDS011;57396;48.742;9.128;2022-10-26T12:33:56;4.87;;;1.50;;
2480;SDS011;57396;48.742;9.128;2022-10-26T12:39:37;5.30;;;1.77;;
2480;SDS011;57396;48.742;9.128;2022-10-26T12:44:31;7.90;;;1.70;;
2480;SDS011;57396;48.742;9.128;2022-10-26T12:46:57;9.93;;;2.40;;
2480;SDS011;57396;48.742;9.128;2022-10-26T12:52:45;3.80;;;1.80;;
2480;SDS011;57396;48.742;9.128;2022-10-26T12:55:34;3.83;;;1.63;;
2480;SDS011;57396;48.742;9.128;2022-10-26T13:00:43;10.53;;;2.17;;
2480;SDS011;57396;48.742;9.128;2022-10-26T13:09:05;7.13;;;2.33;;
2480;SDS011;57396;48.742;9.128;2022-10-26T13:11:36;8.40;;;2.53;;
2480;SDS011;57396;48.742;9.128;2022-10-26T13:14:07;6.10;;;1.83;;
2480;SDS011;57396;48.742;9.128;2022-10-26T13:16:43;10.03;;;2.23;;
2480;SDS011;57396;48.742;9.128;2022-10-26T13:19:21;9.80;;;2.40;;
2480;SDS011;57396;48.742;9.128;2022-10-26T13:22:14;5.33;;;2.00;;
2480;SDS011;57396;48.742;9.128;2022-10-26T13:25:26;8.37;;;2.03;;
2480;SDS011;57396;48.742;9.128;2022-10-26T13:27:40;5.50;;;1.50;;
2480;SDS011;57396;48.742;9.128;2022-10-26T13:30:21;5.27;;;1.80;;
2480;SDS011;57396;48.742;9.128;2022-10-26T13:33:01;3.23;;;1.60;;
2480;SDS011;57396;48.742;9.128;2022-10-26T13:35:27;6.50;;;1.80;;
2480;SDS011;57396;48.742;9.128;2022-10-26T13:37:54;5.40;;;1.77;;
2480;SDS011;57396;48.742;9.128;2022-10-26T13:40:24;4.67;;;1.87;;
2480;SDS011;57396;48.742;9.128;2022-10-26T13:42:54;6.20;;;2.20;;
2480;SDS011;57396;48.742;9.128;2022-10-26T13:45:28;8.50;;;2.20;;
2480;SDS011;57396;48.742;9.128;2022-10-26T13:47:57;7.10;;;2.57;;
2480;SDS011;57396;48.742;9.128;2022-10-26T13:50:26;5.93;;;1.90;;
2480;SDS011;57396;48.742;9.128;2022-10-26T13:52:55;7.70;;;1.60;;
2480;SDS011;57396;48.742;9.128;2022-10-26T13:55:25;8.83;;;4.50;;
2480;SDS011;57396;48.742;9.128;2022-10-26T14:03:34;15.77;;;4.67;;
2480;SDS011;57396;48.742;9.128;2022-10-26T14:06:03;7.30;;;2.57;;
2480;SDS011;57396;48.742;9.128;2022-10-26T14:08:29;4.70;;;2.17;;
2480;SDS011;57396;48.742;9.128;2022-10-26T14:10:56;5.13;;;2.20;;
2480;SDS011;57396;48.742;9.128;2022-10-26T14:13:23;9.27;;;1.87;;
2480;SDS011;57396;48.742;9.128;2022-10-26T14:15:56;7.27;;;2.00;;
2480;SDS011;57396;48.742;9.128;2022-10-26T14:18:26;11.23;;;2.03;;
2480;SDS011;57396;48.742;9.128;2022-10-26T14:20:59;8.23;;;1.87;;
2480;SDS011;57396;48.742;9.128;2022-10-26T14:23:27;8.13;;;1.87;;
2480;SDS011;57396;48.742;9.128;2022-10-26T14:26:05;7.63;;;2.00;;
2480;SDS011;57396;48.742;9.128;2022-10-26T14:28:31;3.80;;;2.07;;
2480;SDS011;57396;48.742;9.128;2022-10-26T14:31:10;12.37;;;2.93;;
2480;SDS011;57396;48.742;9.128;2022-10-26T14:33:52;7.07;;;2.10;;
2480;SDS011;57396;48.742;9.128;2022-10-26T14:36:19;3.00;;;1.60;;
2480;SDS011;57396;48.742;9.128;2022-10-26T14:38:46;6.33;;;1.73;;
2480;SDS011;57396;48.742;9.128;2022-10-26T14:41:16;7.07;;;1.60;;
2480;SDS011;57396;48.742;9.128;2022-10-26T14:43:42;5.57;;;2.03;;
2480;SDS011;57396;48.742;9.128;2022-10-26T14:46:14;3.50;;;2.00;;
2480;SDS011;57396;48.742;9.128;2022-10-26T14:48:48;7.03;;;1.90;;
2480;SDS011;57396;48.742;9.128;2022-10-26T14:51:19;7.90;;;1.87;;
2480;SDS011;57396;48.742;9.128;2022-10-26T14:53:49;4.13;;;1.80;;
2480;SDS011;57396;48.742;9.128;2022-10-26T14:56:18;9.93;;;2.03;;
2480;SDS011;57396;48.742;9.128;2022-10-26T14:58:44;3.93;;;1.90;;
2480;SDS011;57396;48.742;9.128;2022-10-26T15:04:27;7.60;;;1.77;;
2480;SDS011;57396;48.742;9.128;2022-10-26T15:07:01;3.83;;;1.70;;
2480;SDS011;57396;48.742;9.128;2022-10-26T15:09:36;9.30;;;2.20;;
2480;SDS011;57396;48.742;9.128;2022-10-26T15:17:50;5.60;;;1.80;;
2480;SDS011;57396;48.742;9.128;2022-10-26T15:20:18;6.00;;;2.07;;
2480;SDS011;57396;48.742;9.128;2022-10-26T15:22:55;8.03;;;2.00;;
2480;SDS011;57396;48.742;9.128;2022-10-26T15:25:23;9.50;;;2.27;;
2480;SDS011;57396;48.742;9.128;2022-10-26T15:27:50;6.63;;;2.50;;
2480;SDS011;57396;48.742;9.128;2022-10-26T15:30:20;7.07;;;2.37;;
2480;SDS011;57396;48.742;9.128;2022-10-26T15:32:50;4.13;;;2.00;;
2480;SDS011;57396;48.742;9.128;2022-10-26T15:37:42;12.03;;;2.73;;
2480;SDS011;57396;48.742;9.128;2022-10-26T15:40:08;8.50;;;3.13;;
2480;SDS011;57396;48.742;9.128;2022-10-26T15:42:35;4.93;;;3.63;;
2480;SDS011;57396;48.742;9.128;2022-10-26T15:45:02;10.07;;;6.17;;
2480;SDS011;57396;48.742;9.128;2022-10-26T15:47:28;20.47;;;12.87;;
2480;SDS011;57396;48.742;9.128;2022-10-26T15:49:57;23.10;;;14.80;;
2480;SDS011;57396;48.742;9.128;2022-10-26T15:52:22;9.90;;;7.33;;
2480;SDS011;57396;48.742;9.128;2022-10-26T15:54:48;13.00;;;8.93;;
2480;SDS011;57396;48.742;9.128;2022-10-26T15:57:13;17.33;;;7.10;;
2480;SDS011;57396;48.742;9.128;2022-10-26T15:59:40;12.60;;;4.63;;
2480;SDS011;57396;48.742;9.128;2022-10-26T16:02:12;19.47;;;11.23;;
2480;SDS011;57396;48.742;9.128;2022-10-26T16:04:40;20.93;;;3.97;;
2480;SDS011;57396;48.742;9.128;2022-10-26T16:07:07;18.90;;;4.53;;
2480;SDS011;57396;48.742;9.128;2022-10-26T16:09:37;10.50;;;3.07;;
2480;SDS011;57396;48.742;9.128;2022-10-26T16:12:02;14.73;;;3.87;;
2480;SDS011;57396;48.742;9.128;2022-10-26T16:14:28;9.20;;;4.03;;
2480;SDS011;57396;48.742;9.128;2022-10-26T16:16:53;18.00;;;4.70;;
2480;SDS011;57396;48.742;9.128;2022-10-26T16:19:19;12.50;;;3.27;;
2480;SDS011;57396;48.742;9.128;2022-10-26T16:21:44;9.80;;;4.00;;
2480;SDS011;57396;48.742;9.128;2022-10-26T16:24:10;9.97;;;3.97;;
2480;SDS011;57396;48.742;9.128;2022-10-26T16:26:35;7.93;;;4.77;;
2480;SDS011;57396;48.742;9.128;2022-10-26T16:29:00;12.90;;;3.30;;
2480;SDS011;57396;48.742;9.128;2022-10-26T16:31:26;11.07;;;3.83;;
2480;SDS011;57396;48.742;9.128;2022-10-26T16:33:51;16.80;;;4.03;;
2480;SDS011;57396;48.742;9.128;2022-10-26T16:36:17;10.93;;;4.13;;
2480;SDS011;57396;48.742;9.128;2022-10-26T16:38:42;12.00;;;3.60;;
2480;SDS011;57396;48.742;9.128;2022-10-26T16:41:09;8.37;;;3.40;;
2480;SDS011;57396;48.742;9.128;2022-10-26T16:43:37;14.00;;;3.07;;
2480;SDS011;57396;48.742;9.128;2022-10-26T16:46:04;9.13;;;3.67;;
2480;SDS011;57396;48.742;9.128;2022-10-26T16:48:31;14.17;;;5.50;;
2480;SDS011;57396;48.742;9.128;2022-10-26T16:51:03;12.90;;;5.30;;
2480;SDS011;57396;48.742;9.128;2022-10-26T16:53:35;14.83;;;4.60;;
2480;SDS011;57396;48.742;9.128;2022-10-26T16:56:11;18.33;;;4.47;;
2480;SDS011;57396;48.742;9.128;2022-10-26T16:58:37;14.23;;;3.90;;
2480;SDS011;57396;48.742;9.128;2022-10-26T17:01:04;11.73;;;4.50;;
2480;SDS011;57396;48.742;9.128;2022-10-26T17:03:30;10.50;;;4.57;;
2480;SDS011;57396;48.742;9.128;2022-10-26T17:05:59;9.37;;;5.40;;
2480;SDS011;57396;48.742;9.128;2022-10-26T17:08:26;11.70;;;5.37;;
2480;SDS011;57396;48.742;9.128;2022-10-26T17:10:53;15.43;;;6.10;;